createdAt,value
2018-07-04T04:10:17.936Z,17.31
2018-07-04T04:10:43.436Z,17.27
2018-07-04T04:11:08.932Z,17.31
2018-07-04T04:11:34.402Z,17.23
2018-07-04T04:11:59.860Z,17.29
2018-07-04T04:12:25.315Z,17.23
2018-07-04T04:12:50.757Z,17.33
2018-07-04T04:13:16.341Z,17.23
2018-07-04T04:13:41.755Z,17.23
2018-07-04T04:14:07.180Z,17.29
2018-07-04T04:14:32.625Z,17.26
2018-07-04T04:14:58.097Z,17.36
2018-07-04T04:15:23.531Z,17.26
2018-07-04T04:15:48.990Z,17.26
2018-07-04T04:16:14.501Z,17.29
2018-07-04T04:16:40.018Z,17.29
2018-07-04T04:17:05.504Z,17.3
2018-07-04T04:17:31.010Z,17.24
2018-07-04T04:17:56.511Z,17.31
2018-07-04T04:19:00.106Z,17.29
2018-07-04T04:19:25.602Z,17.3
2018-07-04T04:19:51.130Z,17.38
2018-07-04T04:20:16.550Z,17.3
2018-07-04T04:20:42.044Z,17.31
2018-07-04T04:21:07.501Z,17.29
2018-07-04T04:22:11.056Z,17.36
2018-07-04T04:22:36.565Z,17.29
2018-07-04T04:23:02.031Z,17.38
2018-07-04T04:23:27.515Z,17.31
2018-07-04T04:23:52.994Z,17.33
2018-07-04T04:24:18.433Z,17.34
2018-07-04T04:24:43.897Z,17.34
2018-07-04T04:25:09.368Z,17.3
2018-07-04T04:25:34.889Z,17.27
2018-07-04T04:26:00.396Z,17.39
2018-07-04T04:26:25.891Z,17.29
2018-07-04T04:26:51.376Z,17.31
2018-07-04T04:27:16.887Z,17.34
2018-07-04T04:27:42.344Z,17.33
2018-07-04T04:28:07.827Z,17.36
2018-07-04T04:28:33.295Z,17.38
2018-07-04T04:28:58.770Z,17.38
2018-07-04T04:29:24.297Z,17.33
2018-07-04T04:29:49.763Z,17.36
2018-07-04T04:30:15.198Z,17.39
2018-07-04T04:30:40.698Z,17.38
2018-07-04T04:31:06.193Z,17.38
2018-07-04T04:31:31.652Z,17.39
2018-07-04T04:31:57.155Z,17.36
2018-07-04T04:32:22.675Z,17.39
2018-07-04T04:32:48.120Z,17.34
2018-07-04T04:33:13.611Z,17.38
2018-07-04T04:33:39.072Z,17.42
2018-07-04T04:34:04.567Z,17.46
2018-07-04T04:34:30.068Z,17.44
2018-07-04T04:34:55.569Z,17.46
2018-07-04T04:35:21.066Z,17.54
2018-07-04T04:35:46.552Z,17.49
2018-07-04T04:36:12.081Z,17.49
2018-07-04T04:36:37.520Z,17.51
2018-07-04T04:37:03.020Z,17.63
2018-07-04T04:37:28.501Z,17.54
2018-07-04T04:37:53.989Z,17.59
2018-07-04T04:38:19.515Z,17.6
2018-07-04T04:38:45.033Z,17.59
2018-07-04T04:39:10.522Z,17.59
2018-07-04T04:39:36.037Z,17.67
2018-07-04T04:40:01.518Z,17.71
2018-07-04T04:40:27.038Z,17.67
2018-07-04T04:40:52.531Z,17.78
2018-07-04T04:41:17.997Z,17.71
2018-07-04T04:41:43.503Z,17.7
2018-07-04T04:42:09.012Z,17.74
2018-07-04T04:42:34.520Z,17.8
2018-07-04T04:42:59.984Z,17.76
2018-07-04T04:43:25.485Z,17.83
2018-07-04T04:43:50.998Z,17.9
2018-07-04T04:44:16.469Z,17.95
2018-07-04T04:44:41.974Z,17.89
2018-07-04T04:45:07.470Z,18
2018-07-04T04:45:32.959Z,18.05
2018-07-04T04:45:58.449Z,18.05
2018-07-04T04:46:23.923Z,18.13
2018-07-04T04:46:49.422Z,18.11
2018-07-04T04:47:14.937Z,18.16
2018-07-04T04:47:40.454Z,18.25
2018-07-04T04:48:05.932Z,18.16
2018-07-04T04:48:31.432Z,18.31
2018-07-04T04:48:56.909Z,18.41
2018-07-04T04:49:22.396Z,18.43
2018-07-04T04:49:47.959Z,18.45
2018-07-04T04:50:13.452Z,18.49
2018-07-04T04:51:06.894Z,18.55
2018-07-04T04:51:32.393Z,18.58
2018-07-04T04:51:58.629Z,18.59
2018-07-04T04:52:23.513Z,18.65
2018-07-04T04:52:49.013Z,18.68
2018-07-04T04:53:14.512Z,18.7
2018-07-04T04:53:39.978Z,18.84
2018-07-04T04:54:05.435Z,18.8
2018-07-04T04:54:30.916Z,18.88
2018-07-04T04:54:56.438Z,19
2018-07-04T04:55:54.927Z,19.11
2018-07-04T04:56:20.431Z,19.11
2018-07-04T04:56:45.928Z,19.02
2018-07-04T04:57:11.458Z,19.14
2018-07-04T04:57:37.125Z,19.16
2018-07-04T04:58:02.624Z,19.15
2018-07-04T04:58:28.128Z,19.3
2018-07-04T04:58:53.649Z,19.27
2018-07-04T04:59:19.163Z,19.31
2018-07-04T04:59:44.657Z,19.36
2018-07-04T05:00:10.169Z,19.29
2018-07-04T05:00:35.660Z,19.45
2018-07-04T05:01:01.149Z,19.4
2018-07-04T05:01:26.683Z,19.31
2018-07-04T05:01:52.188Z,19.31
2018-07-04T05:02:17.714Z,19.33
2018-07-04T05:02:43.143Z,19.36
2018-07-04T05:03:08.707Z,19.29
2018-07-04T05:03:34.182Z,19.31
2018-07-04T05:03:59.659Z,19.19
2018-07-04T05:04:25.296Z,19.22
2018-07-04T05:04:50.860Z,19.19
2018-07-04T05:05:16.398Z,19.09
2018-07-04T05:05:41.989Z,19
2018-07-04T05:06:07.590Z,18.98
2018-07-04T05:06:33.176Z,19.02
2018-07-04T05:06:58.668Z,19.02
2018-07-04T05:07:24.164Z,18.95
2018-07-04T05:07:49.697Z,18.92
2018-07-04T05:08:15.180Z,18.92
2018-07-04T05:08:40.668Z,18.96
2018-07-04T05:09:06.160Z,18.95
2018-07-04T05:09:31.643Z,18.98
2018-07-04T05:09:57.128Z,18.81
2018-07-04T05:10:22.623Z,18.8
2018-07-04T05:10:48.117Z,18.88
2018-07-04T05:11:13.628Z,18.92
2018-07-04T05:11:39.136Z,18.84
2018-07-04T05:12:04.611Z,18.81
2018-07-04T05:13:03.171Z,18.73
2018-07-04T05:13:28.667Z,18.74
2018-07-04T05:13:54.167Z,18.7
2018-07-04T05:14:19.723Z,18.73
2018-07-04T05:14:45.313Z,18.77
2018-07-04T05:15:10.788Z,18.8
2018-07-04T05:15:36.284Z,18.74
2018-07-04T05:16:01.765Z,18.78
2018-07-04T05:16:27.263Z,18.71
2018-07-04T05:16:52.759Z,18.62
2018-07-04T05:17:18.263Z,18.65
2018-07-04T05:17:43.771Z,18.68
2018-07-04T05:18:09.297Z,18.71
2018-07-04T05:18:34.796Z,18.6
2018-07-04T05:19:00.308Z,18.63
2018-07-04T05:19:25.808Z,18.6
2018-07-04T05:19:51.291Z,18.6
2018-07-04T05:20:16.835Z,18.63
2018-07-04T05:20:42.322Z,18.62
2018-07-04T05:21:35.794Z,18.59
2018-07-04T05:22:01.300Z,18.62
2018-07-04T05:22:26.789Z,18.58
2018-07-04T05:22:52.305Z,18.59
2018-07-04T05:23:17.744Z,18.58
2018-07-04T05:23:43.257Z,18.58
2018-07-04T05:24:08.787Z,18.65
2018-07-04T05:24:34.328Z,18.56
2018-07-04T05:24:59.801Z,18.59
2018-07-04T05:25:25.297Z,18.66
2018-07-04T05:25:50.808Z,18.63
2018-07-04T05:26:16.343Z,18.65
2018-07-04T05:26:41.831Z,18.73
2018-07-04T05:27:07.320Z,18.74
2018-07-04T05:27:32.825Z,18.78
2018-07-04T05:27:58.319Z,18.68
2018-07-04T05:28:23.816Z,18.77
2018-07-04T05:28:49.324Z,18.78
2018-07-04T05:29:14.805Z,18.83
2018-07-04T05:29:40.308Z,18.84
2018-07-04T05:30:05.863Z,18.9
2018-07-04T05:30:31.356Z,18.88
2018-07-04T05:30:56.861Z,18.9
2018-07-04T05:31:22.359Z,18.98
2018-07-04T05:31:47.871Z,19.02
2018-07-04T05:32:13.399Z,19.19
2018-07-04T05:32:39.040Z,19.12
2018-07-04T05:33:04.907Z,19.33
2018-07-04T05:33:30.504Z,19.41
2018-07-04T05:33:56.035Z,19.31
2018-07-04T05:34:21.523Z,19.36
2018-07-04T05:34:47.006Z,19.36
2018-07-04T05:35:12.617Z,19.47
2018-07-04T05:35:37.978Z,19.48
2018-07-04T05:36:03.474Z,19.48
2018-07-04T05:36:29.043Z,19.54
2018-07-04T05:36:54.553Z,19.51
2018-07-04T05:37:20.308Z,19.56
2018-07-04T05:37:46.114Z,19.51
2018-07-04T05:38:11.663Z,19.69
2018-07-04T05:38:37.192Z,19.64
2018-07-04T05:39:03.251Z,19.7
2018-07-04T05:39:28.727Z,19.79
2018-07-04T05:39:54.263Z,19.77
2018-07-04T05:40:19.733Z,19.76
2018-07-04T05:40:45.185Z,19.81
2018-07-04T05:41:10.682Z,19.84
2018-07-04T05:41:36.179Z,19.85
2018-07-04T05:42:01.700Z,19.89
2018-07-04T05:42:27.210Z,19.88
2018-07-04T05:42:52.688Z,19.82
2018-07-04T05:43:56.295Z,19.94
2018-07-04T05:44:22.050Z,19.94
2018-07-04T05:44:47.485Z,19.99
2018-07-04T05:45:12.983Z,20.03
2018-07-04T05:45:38.519Z,20
2018-07-04T05:46:04.138Z,20.07
2018-07-04T05:46:29.595Z,20.07
2018-07-04T05:46:55.094Z,20.21
2018-07-04T05:47:20.588Z,20.26
2018-07-04T05:47:46.094Z,20.29
2018-07-04T05:48:11.593Z,20.26
2018-07-04T05:48:37.090Z,20.29
2018-07-04T05:49:02.638Z,20.55
2018-07-04T05:49:28.124Z,20.55
2018-07-04T05:49:53.612Z,20.6
2018-07-04T05:50:19.096Z,20.63
2018-07-04T05:50:44.624Z,20.65
2018-07-04T05:51:10.108Z,20.84
2018-07-04T05:51:35.658Z,20.85
2018-07-04T05:52:01.121Z,20.9
2018-07-04T05:52:26.633Z,20.96
2018-07-04T05:53:25.184Z,21.09
2018-07-04T05:54:13.490Z,21.15
2018-07-04T05:54:38.965Z,21.22
2018-07-04T05:55:04.464Z,21.21
2018-07-04T05:55:29.968Z,21.21
2018-07-04T05:55:55.464Z,21.25
2018-07-04T05:56:20.994Z,21.22
2018-07-04T05:56:46.679Z,21.25
2018-07-04T05:57:11.955Z,21.22
2018-07-04T05:57:37.455Z,21.25
2018-07-04T05:58:02.911Z,21.25
2018-07-04T05:58:28.392Z,21.25
2018-07-04T05:58:53.931Z,21.22
2018-07-04T05:59:19.492Z,21.17
2018-07-04T05:59:45.037Z,21.27
2018-07-04T06:00:10.757Z,21.17
2018-07-04T06:00:36.294Z,21.12
2018-07-04T06:01:01.794Z,21.09
2018-07-04T06:01:27.410Z,21.12
2018-07-04T06:01:52.788Z,21.22
2018-07-04T06:02:18.285Z,21.06
2018-07-04T06:02:43.787Z,21.15
2018-07-04T06:03:09.261Z,21.09
2018-07-04T06:03:34.724Z,21.14
2018-07-04T06:04:00.352Z,21.15
2018-07-04T06:04:25.751Z,21.15
2018-07-04T06:04:51.256Z,21
2018-07-04T06:05:16.740Z,20.99
2018-07-04T06:05:42.236Z,21.06
2018-07-04T06:06:07.767Z,21.06
2018-07-04T06:06:33.267Z,21.09
2018-07-04T06:06:58.802Z,21.09
2018-07-04T06:07:24.333Z,21.06
2018-07-04T06:07:49.822Z,21.07
2018-07-04T06:08:15.297Z,21
2018-07-04T06:08:40.798Z,20.97
2018-07-04T06:09:06.520Z,20.95
2018-07-04T06:09:31.984Z,21
2018-07-04T06:10:20.298Z,21.07
2018-07-04T06:11:23.904Z,21.14
2018-07-04T06:11:49.429Z,21.07
2018-07-04T06:12:14.936Z,21.14
2018-07-04T06:12:40.417Z,21.21
2018-07-04T06:13:05.933Z,21.29
2018-07-04T06:13:31.436Z,21.33
2018-07-04T06:13:56.930Z,21.35
2018-07-04T06:14:22.422Z,21.42
2018-07-04T06:14:47.903Z,21.42
2018-07-04T06:15:13.387Z,21.51
2018-07-04T06:15:38.991Z,21.6
2018-07-04T06:16:04.450Z,21.64
2018-07-04T06:16:29.971Z,21.67
2018-07-04T06:16:55.490Z,21.69
2018-07-04T06:17:21.006Z,21.69
2018-07-04T06:17:46.547Z,21.8
2018-07-04T06:18:12.003Z,21.77
2018-07-04T06:18:37.509Z,21.85
2018-07-04T06:19:02.994Z,21.83
2018-07-04T06:19:28.484Z,21.85
2018-07-04T06:19:53.980Z,21.8
2018-07-04T06:20:19.473Z,21.79
2018-07-04T06:20:44.977Z,21.96
2018-07-04T06:21:10.464Z,21.96
2018-07-04T06:21:35.971Z,22
2018-07-04T06:22:01.457Z,22.07
2018-07-04T06:22:26.939Z,21.99
2018-07-04T06:22:52.437Z,22.11
2018-07-04T06:23:17.962Z,22.06
2018-07-04T06:23:43.463Z,22.1
2018-07-04T06:24:08.935Z,22.23
2018-07-04T06:24:34.438Z,22.25
2018-07-04T06:24:59.924Z,22.36
2018-07-04T06:25:25.423Z,22.25
2018-07-04T06:25:50.915Z,22.28
2018-07-04T06:26:16.386Z,22.33
2018-07-04T06:26:41.918Z,22.45
2018-07-04T06:27:07.404Z,22.44
2018-07-04T06:27:32.905Z,22.43
2018-07-04T06:27:58.404Z,22.47
2018-07-04T06:28:23.908Z,22.45
2018-07-04T06:28:49.412Z,22.45
2018-07-04T06:29:14.915Z,22.43
2018-07-04T06:29:40.431Z,22.38
2018-07-04T06:30:05.900Z,22.47
2018-07-04T06:31:09.581Z,22.32
2018-07-04T06:31:35.005Z,22.41
2018-07-04T06:32:00.509Z,22.3
2018-07-04T06:32:26.047Z,22.15
2018-07-04T06:32:51.522Z,22.2
2018-07-04T06:33:17.022Z,22.18
2018-07-04T06:33:42.518Z,22.04
2018-07-04T06:34:08.016Z,22.07
2018-07-04T06:34:33.472Z,22.06
2018-07-04T06:34:58.941Z,21.95
2018-07-04T06:35:24.423Z,22.06
2018-07-04T06:35:49.954Z,21.99
2018-07-04T06:36:15.463Z,21.93
2018-07-04T06:36:40.963Z,21.8
2018-07-04T06:37:06.459Z,21.93
2018-07-04T06:37:31.920Z,21.85
2018-07-04T06:37:57.431Z,21.89
2018-07-04T06:38:22.906Z,21.82
2018-07-04T06:38:48.409Z,21.88
2018-07-04T06:39:14.033Z,21.89
2018-07-04T06:39:39.405Z,21.88
2018-07-04T06:40:04.937Z,21.83
2018-07-04T06:40:30.388Z,21.8
2018-07-04T06:40:55.879Z,21.93
2018-07-04T06:41:21.411Z,21.85
2018-07-04T06:41:46.891Z,21.95
2018-07-04T06:42:12.364Z,21.95
2018-07-04T06:42:37.866Z,21.88
2018-07-04T06:43:03.392Z,21.8
2018-07-04T06:43:28.870Z,21.95
2018-07-04T06:43:54.379Z,21.93
2018-07-04T06:44:19.883Z,21.95
2018-07-04T06:44:45.374Z,22
2018-07-04T06:45:10.879Z,21.96
2018-07-04T06:45:36.371Z,21.99
2018-07-04T06:46:01.843Z,22
2018-07-04T06:46:27.412Z,22.02
2018-07-04T06:46:52.858Z,22.06
2018-07-04T06:47:18.347Z,21.98
2018-07-04T06:47:43.857Z,22.02
2018-07-04T06:48:09.339Z,21.98
2018-07-04T06:48:34.847Z,22.08
2018-07-04T06:49:00.463Z,22
2018-07-04T06:49:25.861Z,21.99
2018-07-04T06:49:51.352Z,22.04
2018-07-04T06:50:16.838Z,22.02
2018-07-04T06:50:42.313Z,22.02
2018-07-04T06:51:07.809Z,21.99
2018-07-04T06:51:33.299Z,22.06
2018-07-04T06:51:58.798Z,22
2018-07-04T06:52:24.282Z,22.08
2018-07-04T06:52:49.803Z,21.98
2018-07-04T06:53:15.289Z,22.08
2018-07-04T06:53:40.772Z,22
2018-07-04T06:54:06.349Z,22.06
2018-07-04T06:54:31.809Z,22
2018-07-04T06:54:57.292Z,21.96
2018-07-04T06:55:22.783Z,21.98
2018-07-04T06:55:48.282Z,21.99
2018-07-04T06:56:13.799Z,21.99
2018-07-04T06:56:39.332Z,21.96
2018-07-04T06:57:04.775Z,21.99
2018-07-04T06:57:30.269Z,21.99
2018-07-04T06:57:55.787Z,21.93
2018-07-04T06:58:21.260Z,21.93
2018-07-04T06:58:46.745Z,21.98
2018-07-04T06:59:12.253Z,22.02
2018-07-04T06:59:37.757Z,21.95
2018-07-04T07:00:03.263Z,22
2018-07-04T07:00:28.750Z,21.91
2018-07-04T07:00:54.275Z,21.98
2018-07-04T07:01:19.731Z,21.98
2018-07-04T07:01:45.264Z,21.99
2018-07-04T07:02:10.713Z,21.96
2018-07-04T07:02:36.215Z,22.02
2018-07-04T07:03:01.695Z,21.98
2018-07-04T07:03:27.229Z,22
2018-07-04T07:03:52.739Z,21.99
2018-07-04T07:04:18.225Z,21.96
2018-07-04T07:04:43.705Z,21.96
2018-07-04T07:05:09.199Z,21.99
2018-07-04T07:05:34.689Z,21.96
2018-07-04T07:06:00.181Z,22
2018-07-04T07:06:25.659Z,22.04
2018-07-04T07:06:51.165Z,22.06
2018-07-04T07:07:16.616Z,22.11
2018-07-04T07:07:42.134Z,22.04
2018-07-04T07:08:07.674Z,22.07
2018-07-04T07:08:33.151Z,22.13
2018-07-04T07:08:58.622Z,22.1
2018-07-04T07:09:24.110Z,22.08
2018-07-04T07:09:49.609Z,22.14
2018-07-04T07:10:15.098Z,22.18
2018-07-04T07:10:40.626Z,22.25
2018-07-04T07:11:06.142Z,22.29
2018-07-04T07:11:31.673Z,22.35
2018-07-04T07:11:57.200Z,22.33
2018-07-04T07:12:22.720Z,22.35
2018-07-04T07:12:48.177Z,22.32
2018-07-04T07:13:13.690Z,22.3
2018-07-04T07:13:39.201Z,22.25
2018-07-04T07:14:04.712Z,22.3
2018-07-04T07:14:30.258Z,22.28
2018-07-04T07:14:55.679Z,22.43
2018-07-04T07:15:21.177Z,22.36
2018-07-04T07:15:46.666Z,22.44
2018-07-04T07:16:35.522Z,22.38
2018-07-04T07:17:01.049Z,22.43
2018-07-04T07:17:26.529Z,22.45
2018-07-04T07:17:52.055Z,22.43
2018-07-04T07:18:17.547Z,22.45
2018-07-04T07:18:43.040Z,22.43
2018-07-04T07:19:36.462Z,22.41
2018-07-04T07:20:01.959Z,22.43
2018-07-04T07:20:27.441Z,22.44
2018-07-04T07:20:52.940Z,22.36
2018-07-04T07:21:18.487Z,22.44
2018-07-04T07:21:43.965Z,22.5
2018-07-04T07:22:09.453Z,22.44
2018-07-04T07:22:34.952Z,22.57
2018-07-04T07:23:00.444Z,22.62
2018-07-04T07:23:25.959Z,22.47
2018-07-04T07:23:51.448Z,22.59
2018-07-04T07:24:16.959Z,22.63
2018-07-04T07:24:42.438Z,22.69
2018-07-04T07:25:07.935Z,22.73
2018-07-04T07:25:33.409Z,22.8
2018-07-04T07:25:58.906Z,22.76
2018-07-04T07:26:24.417Z,22.88
2018-07-04T07:26:49.942Z,22.85
2018-07-04T07:27:15.417Z,22.81
2018-07-04T07:27:40.921Z,22.85
2018-07-04T07:28:06.419Z,22.87
2018-07-04T07:28:31.926Z,22.91
2018-07-04T07:28:57.419Z,22.99
2018-07-04T07:29:22.921Z,22.99
2018-07-04T07:29:48.410Z,23.02
2018-07-04T07:30:13.901Z,23.02
2018-07-04T07:30:39.402Z,23.03
2018-07-04T07:31:04.923Z,23
2018-07-04T07:31:30.447Z,23.08
2018-07-04T07:31:55.938Z,23.1
2018-07-04T07:32:21.420Z,23.13
2018-07-04T07:32:46.909Z,23.12
2018-07-04T07:33:12.391Z,23.12
2018-07-04T07:33:37.896Z,23.2
2018-07-04T07:34:03.447Z,23.23
2018-07-04T07:34:28.916Z,23.25
2018-07-04T07:34:54.358Z,23.24
2018-07-04T07:35:19.892Z,23.21
2018-07-04T07:35:45.381Z,23.24
2018-07-04T07:36:10.888Z,23.23
2018-07-04T07:36:36.377Z,23.25
2018-07-04T07:37:01.881Z,23.27
2018-07-04T07:37:27.368Z,23.32
2018-07-04T07:37:52.850Z,23.37
2018-07-04T07:38:18.362Z,23.34
2018-07-04T07:38:43.866Z,23.51
2018-07-04T07:39:09.370Z,23.46
2018-07-04T07:39:34.870Z,23.54
2018-07-04T07:40:00.354Z,23.58
2018-07-04T07:40:25.868Z,23.59
2018-07-04T07:40:51.358Z,23.63
2018-07-04T07:41:16.860Z,23.73
2018-07-04T07:41:42.368Z,23.73
2018-07-04T07:42:07.859Z,23.71
2018-07-04T07:42:33.362Z,23.68
2018-07-04T07:42:58.856Z,23.66
2018-07-04T07:43:24.378Z,23.71
2018-07-04T07:43:49.858Z,23.73
2018-07-04T07:44:15.376Z,23.71
2018-07-04T07:44:40.831Z,23.66
2018-07-04T07:45:06.325Z,23.68
2018-07-04T07:46:09.935Z,23.73
2018-07-04T07:46:35.428Z,23.68
2018-07-04T07:47:00.929Z,23.71
2018-07-04T07:47:26.420Z,23.69
2018-07-04T07:47:51.911Z,23.69
2018-07-04T07:48:17.431Z,23.74
2018-07-04T07:48:42.929Z,23.63
2018-07-04T07:49:08.422Z,23.65
2018-07-04T07:49:33.974Z,23.66
2018-07-04T07:49:59.437Z,23.59
2018-07-04T07:50:24.982Z,23.56
2018-07-04T07:50:50.479Z,23.59
2018-07-04T07:51:15.980Z,23.58
2018-07-04T07:51:41.473Z,23.61
2018-07-04T07:52:06.976Z,23.69
2018-07-04T07:52:32.454Z,23.63
2018-07-04T07:52:57.961Z,23.69
2018-07-04T07:53:23.449Z,23.69
2018-07-04T07:53:48.946Z,23.76
2018-07-04T07:54:14.550Z,23.76
2018-07-04T07:54:39.918Z,23.87
2018-07-04T07:55:05.413Z,23.86
2018-07-04T07:55:30.902Z,23.92
2018-07-04T07:55:56.414Z,23.92
2018-07-04T07:56:21.872Z,24.03
2018-07-04T07:56:47.374Z,24.03
2018-07-04T07:57:12.863Z,24.08
2018-07-04T07:57:38.379Z,24.06
2018-07-04T07:58:03.866Z,24.17
2018-07-04T07:58:29.365Z,24.13
2018-07-04T07:58:54.852Z,24.23
2018-07-04T07:59:20.364Z,24.2
2018-07-04T07:59:45.829Z,24.26
2018-07-04T08:00:11.329Z,24.29
2018-07-04T08:00:36.828Z,24.3
2018-07-04T08:01:02.318Z,24.39
2018-07-04T08:01:27.844Z,24.4
2018-07-04T08:01:53.407Z,24.42
2018-07-04T08:02:18.938Z,24.36
2018-07-04T08:02:44.400Z,24.38
2018-07-04T08:03:09.873Z,24.21
2018-07-04T08:03:35.366Z,24.32
2018-07-04T08:04:00.844Z,24.26
2018-07-04T08:04:26.325Z,24.26
2018-07-04T08:04:51.834Z,24.23
2018-07-04T08:05:17.334Z,24.21
2018-07-04T08:05:42.830Z,24.28
2018-07-04T08:06:08.326Z,24.24
2018-07-04T08:06:33.945Z,24.28
2018-07-04T08:06:59.592Z,24.29
2018-07-04T08:07:25.101Z,24.32
2018-07-04T08:07:50.795Z,24.29
2018-07-04T08:08:16.540Z,24.36
2018-07-04T08:08:42.080Z,24.39
2018-07-04T08:09:07.779Z,24.3
2018-07-04T08:09:33.383Z,24.43
2018-07-04T08:09:59.055Z,24.43
2018-07-04T08:10:24.605Z,24.42
2018-07-04T08:10:50.139Z,24.35
2018-07-04T08:11:15.625Z,24.39
2018-07-04T08:11:41.114Z,24.5
2018-07-04T08:12:06.621Z,24.51
2018-07-04T08:12:32.111Z,24.45
2018-07-04T08:12:57.618Z,24.53
2018-07-04T08:13:23.107Z,24.48
2018-07-04T08:13:48.623Z,24.61
2018-07-04T08:14:14.140Z,24.6
2018-07-04T08:14:39.653Z,24.68
2018-07-04T08:15:05.131Z,24.63
2018-07-04T08:15:30.654Z,24.61
2018-07-04T08:15:56.132Z,24.63
2018-07-04T08:16:21.632Z,24.58
2018-07-04T08:16:47.139Z,24.58
2018-07-04T08:17:12.654Z,24.47
2018-07-04T08:17:38.186Z,24.5
2018-07-04T08:18:03.688Z,24.5
2018-07-04T08:18:29.193Z,24.5
2018-07-04T08:18:54.673Z,24.51
2018-07-04T08:19:20.143Z,24.48
2018-07-04T08:19:45.636Z,24.51
2018-07-04T08:20:11.130Z,24.55
2018-07-04T08:20:36.622Z,24.55
2018-07-04T08:21:02.136Z,24.55
2018-07-04T08:21:27.665Z,24.51
2018-07-04T08:21:53.165Z,24.51
2018-07-04T08:22:18.635Z,24.51
2018-07-04T08:22:44.146Z,24.54
2018-07-04T08:23:09.657Z,24.63
2018-07-04T08:23:35.212Z,24.61
2018-07-04T08:24:00.654Z,24.66
2018-07-04T08:24:26.175Z,24.73
2018-07-04T08:24:51.686Z,24.73
2018-07-04T08:25:17.195Z,24.68
2018-07-04T08:25:42.701Z,24.85
2018-07-04T08:26:08.220Z,24.89
2018-07-04T08:26:33.709Z,24.81
2018-07-04T08:26:59.207Z,24.85
2018-07-04T08:27:24.728Z,24.85
2018-07-04T08:27:50.247Z,24.96
2018-07-04T08:28:15.735Z,24.98
2018-07-04T08:28:41.215Z,24.93
2018-07-04T08:29:06.717Z,24.92
2018-07-04T08:29:32.222Z,24.98
2018-07-04T08:29:57.821Z,24.98
2018-07-04T08:30:23.367Z,24.86
2018-07-04T08:30:48.852Z,24.96
2018-07-04T08:31:14.334Z,25.01
2018-07-04T08:31:39.828Z,24.93
2018-07-04T08:32:05.323Z,25.03
2018-07-04T08:32:30.810Z,25.01
2018-07-04T08:32:56.292Z,25.08
2018-07-04T08:33:21.783Z,25.11
2018-07-04T08:33:47.273Z,25.14
2018-07-04T08:34:12.769Z,25.21
2018-07-04T08:34:38.277Z,25.25
2018-07-04T08:35:03.794Z,25.36
2018-07-04T08:35:29.297Z,25.41
2018-07-04T08:35:54.790Z,25.53
2018-07-04T08:36:58.407Z,25.73
2018-07-04T08:37:23.911Z,25.81
2018-07-04T08:37:49.472Z,25.84
2018-07-04T08:38:15.013Z,25.96
2018-07-04T08:38:40.497Z,25.96
2018-07-04T08:39:06.001Z,25.91
2018-07-04T08:39:31.505Z,26.06
2018-07-04T08:39:56.998Z,26.03
2018-07-04T08:40:22.493Z,25.99
2018-07-04T08:40:48.009Z,26.05
2018-07-04T08:41:13.497Z,26.09
2018-07-04T08:41:39.010Z,26.15
2018-07-04T08:42:04.656Z,26.1
2018-07-04T08:42:30.143Z,26.25
2018-07-04T08:42:55.664Z,26.23
2018-07-04T08:43:21.184Z,26.26
2018-07-04T08:43:46.696Z,26.25
2018-07-04T08:44:12.192Z,26.28
2018-07-04T08:44:37.698Z,26.28
2018-07-04T08:45:03.182Z,26.25
2018-07-04T08:45:28.668Z,26.25
2018-07-04T08:45:54.155Z,26.23
2018-07-04T08:46:19.716Z,26.23
2018-07-04T08:46:45.198Z,26.34
2018-07-04T08:47:10.709Z,26.33
2018-07-04T08:47:36.229Z,26.34
2018-07-04T08:48:01.733Z,26.38
2018-07-04T08:48:27.207Z,26.38
2018-07-04T08:48:52.687Z,26.38
2018-07-04T08:49:18.171Z,26.34
2018-07-04T08:49:43.666Z,26.41
2018-07-04T08:50:09.136Z,26.47
2018-07-04T08:50:34.687Z,26.43
2018-07-04T08:51:00.107Z,26.44
2018-07-04T08:51:25.647Z,26.48
2018-07-04T08:51:51.059Z,26.47
2018-07-04T08:52:16.525Z,26.47
2018-07-04T08:52:42.177Z,26.45
2018-07-04T08:53:07.518Z,26.45
2018-07-04T08:53:33.009Z,26.53
2018-07-04T08:53:58.554Z,26.59
2018-07-04T08:54:24.048Z,26.59
2018-07-04T08:54:49.529Z,26.52
2018-07-04T08:55:15.043Z,26.59
2018-07-04T08:55:40.535Z,26.68
2018-07-04T08:56:06.033Z,26.7
2018-07-04T08:56:31.511Z,26.63
2018-07-04T08:56:57.029Z,26.7
2018-07-04T08:57:22.529Z,26.77
2018-07-04T08:57:47.991Z,26.8
2018-07-04T08:58:13.541Z,26.9
2018-07-04T08:58:39.124Z,26.9
2018-07-04T08:59:08.431Z,26.95
2018-07-04T08:59:33.924Z,26.84
2018-07-04T08:59:59.412Z,26.93
2018-07-04T09:00:24.928Z,26.9
2018-07-04T09:00:50.429Z,26.97
2018-07-04T09:01:15.945Z,26.97
2018-07-04T09:01:41.429Z,26.95
2018-07-04T09:02:06.924Z,26.99
2018-07-04T09:02:32.569Z,27.11
2018-07-04T09:02:58.103Z,27.05
2018-07-04T09:03:23.592Z,27.18
2018-07-04T09:03:49.185Z,27.15
2018-07-04T09:04:14.802Z,27.11
2018-07-04T09:04:40.284Z,27.1
2018-07-04T09:05:05.776Z,27.08
2018-07-04T09:05:31.271Z,27.05
2018-07-04T09:05:56.743Z,27.02
2018-07-04T09:06:22.234Z,27.05
2018-07-04T09:06:47.755Z,27.05
2018-07-04T09:07:13.239Z,27.1
2018-07-04T09:07:38.948Z,27.1
2018-07-04T09:08:04.447Z,27.08
2018-07-04T09:08:29.946Z,27.12
2018-07-04T09:08:55.436Z,27.07
2018-07-04T09:09:20.939Z,27.05
2018-07-04T09:09:46.451Z,27.03
2018-07-04T09:10:11.945Z,27.12
2018-07-04T09:10:37.450Z,27.2
2018-07-04T09:11:02.945Z,27.25
2018-07-04T09:11:28.454Z,27.44
2018-07-04T09:11:54.062Z,27.29
2018-07-04T09:12:19.416Z,27.39
2018-07-04T09:12:44.924Z,27.47
2018-07-04T09:13:10.466Z,27.42
2018-07-04T09:13:35.951Z,27.42
2018-07-04T09:14:01.439Z,27.42
2018-07-04T09:14:26.931Z,27.45
2018-07-04T09:14:52.449Z,27.51
2018-07-04T09:15:17.933Z,27.47
2018-07-04T09:15:43.430Z,27.44
2018-07-04T09:16:08.910Z,27.52
2018-07-04T09:16:34.417Z,27.55
2018-07-04T09:16:59.889Z,27.54
2018-07-04T09:17:25.393Z,27.58
2018-07-04T09:17:50.874Z,27.67
2018-07-04T09:18:16.389Z,27.6
2018-07-04T09:18:42.134Z,27.63
2018-07-04T09:19:07.680Z,27.55
2018-07-04T09:19:33.225Z,27.63
2018-07-04T09:19:58.732Z,27.6
2018-07-04T09:20:24.229Z,27.59
2018-07-04T09:20:49.745Z,27.52
2018-07-04T09:21:15.253Z,27.54
2018-07-04T09:21:40.753Z,27.54
2018-07-04T09:22:06.224Z,27.64
2018-07-04T09:22:31.754Z,27.6
2018-07-04T09:22:57.249Z,27.55
2018-07-04T09:23:22.733Z,27.54
2018-07-04T09:23:48.258Z,27.55
2018-07-04T09:24:13.766Z,27.51
2018-07-04T09:24:39.307Z,27.49
2018-07-04T09:25:04.804Z,27.59
2018-07-04T09:25:30.311Z,27.55
2018-07-04T09:25:55.836Z,27.67
2018-07-04T09:26:21.309Z,27.64
2018-07-04T09:26:46.811Z,27.58
2018-07-04T09:27:12.388Z,27.63
2018-07-04T09:27:37.846Z,27.6
2018-07-04T09:28:03.418Z,27.59
2018-07-04T09:28:28.922Z,27.59
2018-07-04T09:28:54.445Z,27.59
2018-07-04T09:29:20.055Z,27.59
2018-07-04T09:29:45.540Z,27.54
2018-07-04T09:30:11.122Z,27.68
2018-07-04T09:30:36.622Z,27.59
2018-07-04T09:31:02.117Z,27.54
2018-07-04T09:31:27.613Z,27.52
2018-07-04T09:31:53.130Z,27.58
2018-07-04T09:32:18.634Z,27.52
2018-07-04T09:32:44.226Z,27.58
2018-07-04T09:33:09.603Z,27.52
2018-07-04T09:33:35.152Z,27.55
2018-07-04T09:34:00.688Z,27.55
2018-07-04T09:34:26.207Z,27.59
2018-07-04T09:35:35.008Z,27.54
2018-07-04T09:36:00.462Z,27.58
2018-07-04T09:36:25.961Z,27.51
2018-07-04T09:36:51.451Z,27.44
2018-07-04T09:37:16.951Z,27.52
2018-07-04T09:37:42.469Z,27.54
2018-07-04T09:38:07.954Z,27.59
2018-07-04T09:38:33.461Z,27.65
2018-07-04T09:38:58.964Z,27.65
2018-07-04T09:39:24.473Z,27.71
2018-07-04T09:39:49.945Z,27.7
2018-07-04T09:40:15.463Z,27.71
2018-07-04T09:41:08.908Z,27.75
2018-07-04T09:41:34.405Z,27.8
2018-07-04T09:41:59.907Z,27.89
2018-07-04T09:42:25.439Z,27.78
2018-07-04T09:42:50.928Z,27.89
2018-07-04T09:43:16.621Z,27.92
2018-07-04T09:43:42.129Z,27.89
2018-07-04T09:44:07.624Z,27.95
2018-07-04T09:44:33.321Z,27.98
2018-07-04T09:44:58.809Z,27.92
2018-07-04T09:45:24.326Z,27.93
2018-07-04T09:45:49.832Z,28.02
2018-07-04T09:46:15.304Z,28.02
2018-07-04T09:47:18.446Z,28.02
2018-07-04T09:47:44.398Z,27.95
2018-07-04T09:48:09.945Z,28.04
2018-07-04T09:49:02.919Z,27.98
2018-07-04T09:49:28.453Z,27.93
2018-07-04T09:49:53.943Z,28.08
2018-07-04T09:50:19.438Z,28.08
2018-07-04T09:50:44.949Z,28.02
2018-07-04T09:51:10.455Z,28.12